Time;durP1;ratioP1;P1;durP2;ratioP2;P2;SDS_P1;SDS_P2;PMS_P1;PMS_P2;Temp;Humidity;BMP_temperature;BMP_pressure;BME280_temperature;BME280_humidity;BME280_pressure;Samples;Min_cycle;Max_cycle;Signal;HPM_P1;HPM_P2
2021/10/25 00:01:31;;;;;;;21.50;14.67;;;;;;;;;;5043027;28;20182;-72
2021/10/25 00:03:57;;;;;;;19.23;13.83;;;;;;;;;;5045700;28;20174;-72
2021/10/25 00:06:22;;;;;;;18.33;14.27;;;;;;;;;;5050162;28;20181;-72
2021/10/25 00:08:47;;;;;;;20.87;15.43;;;;;;;;;;5044239;28;20181;-71
2021/10/25 00:11:13;;;;;;;20.50;14.73;;;;;;;;;;5043668;28;20225;-72
2021/10/25 00:13:39;;;;;;;18.97;14.23;;;;;;;;;;5044508;28;20192;-72
2021/10/25 00:16:04;;;;;;;24.67;16.03;;;;;;;;;;5058123;28;20236;-74
2021/10/25 00:18:29;;;;;;;22.87;15.70;;;;;;;;;;5044993;28;20260;-74
2021/10/25 00:20:54;;;;;;;20.43;14.93;;;;;;;;;;5043911;28;20190;-72
2021/10/25 00:23:20;;;;;;;21.10;15.13;;;;;;;;;;5031263;28;20225;-72
2021/10/25 00:25:45;;;;;;;23.37;15.50;;;;;;;;;;5043634;28;20212;-71
2021/10/25 00:28:10;;;;;;;24.13;15.67;;;;;;;;;;5043624;28;20666;-72
2021/10/25 00:30:35;;;;;;;21.60;15.97;;;;;;;;;;5047757;28;20674;-72
2021/10/25 00:33:00;;;;;;;24.53;16.33;;;;;;;;;;5050249;28;20192;-72
2021/10/25 00:35:25;;;;;;;23.50;15.40;;;;;;;;;;5042089;28;20236;-73
2021/10/25 00:37:51;;;;;;;23.60;17.33;;;;;;;;;;5046850;28;20170;-73
2021/10/25 00:40:16;;;;;;;22.00;15.87;;;;;;;;;;5034356;28;20251;-73
2021/10/25 00:42:42;;;;;;;24.37;15.87;;;;;;;;;;5048244;28;20654;-73
2021/10/25 00:45:08;;;;;;;20.30;14.73;;;;;;;;;;5049051;28;20663;-73
2021/10/25 00:47:33;;;;;;;18.93;14.67;;;;;;;;;;5050057;28;20200;-73
2021/10/25 00:49:58;;;;;;;21.17;15.50;;;;;;;;;;5042544;28;20343;-73
2021/10/25 00:52:23;;;;;;;23.63;14.43;;;;;;;;;;5037280;28;20695;-73
2021/10/25 00:54:49;;;;;;;21.23;14.10;;;;;;;;;;5050022;28;20185;-73
2021/10/25 00:57:14;;;;;;;17.23;13.37;;;;;;;;;;5047090;28;20208;-73
2021/10/25 00:59:39;;;;;;;21.10;14.20;;;;;;;;;;5033139;28;20369;-73
2021/10/25 01:02:05;;;;;;;20.40;13.97;;;;;;;;;;5037228;28;20190;-73
2021/10/25 01:04:31;;;;;;;16.00;13.60;;;;;;;;;;5049342;28;20181;-73
2021/10/25 01:06:56;;;;;;;17.20;13.17;;;;;;;;;;5050123;28;20181;-73
2021/10/25 01:09:22;;;;;;;20.73;13.63;;;;;;;;;;5045384;28;20186;-73
2021/10/25 01:11:48;;;;;;;15.40;12.47;;;;;;;;;;5043701;28;20201;-73
2021/10/25 01:14:13;;;;;;;15.60;11.73;;;;;;;;;;5043968;28;20553;-73
2021/10/25 01:16:39;;;;;;;14.93;11.37;;;;;;;;;;5043654;28;20212;-74
2021/10/25 01:19:04;;;;;;;14.30;11.37;;;;;;;;;;5045186;28;20185;-74
2021/10/25 01:21:29;;;;;;;15.03;11.57;;;;;;;;;;5049091;28;20243;-74
2021/10/25 01:23:55;;;;;;;15.33;10.97;;;;;;;;;;5045170;28;20548;-73
2021/10/25 01:26:23;;;;;;;17.07;11.43;;;;;;;;;;5043616;28;20296;-74
2021/10/25 01:28:49;;;;;;;16.23;11.47;;;;;;;;;;5041368;28;20208;-74
2021/10/25 01:31:15;;;;;;;16.70;11.23;;;;;;;;;;5041331;28;20197;-74
2021/10/25 01:33:42;;;;;;;13.53;10.40;;;;;;;;;;5057619;28;20259;-74
2021/10/25 01:36:08;;;;;;;12.33;10.10;;;;;;;;;;5042102;28;20199;-74
2021/10/25 01:38:33;;;;;;;16.77;10.87;;;;;;;;;;5042266;28;20185;-74
2021/10/25 01:40:58;;;;;;;13.43;11.13;;;;;;;;;;5044018;28;20273;-74
2021/10/25 01:43:23;;;;;;;17.27;11.20;;;;;;;;;;5048252;28;20176;-74
2021/10/25 01:45:48;;;;;;;15.23;10.30;;;;;;;;;;5049906;28;20654;-75
2021/10/25 01:48:14;;;;;;;15.27;10.27;;;;;;;;;;5043168;28;20182;-72
2021/10/25 01:50:39;;;;;;;15.67;10.80;;;;;;;;;;5046941;28;20193;-72
2021/10/25 01:53:06;;;;;;;14.73;10.93;;;;;;;;;;5050617;28;20228;-72
2021/10/25 01:55:31;;;;;;;13.17;10.17;;;;;;;;;;5048003;28;20178;-75
2021/10/25 01:57:56;;;;;;;16.63;10.93;;;;;;;;;;5049941;28;20166;-75
2021/10/25 02:00:22;;;;;;;13.97;10.63;;;;;;;;;;5048542;28;20189;-72
2021/10/25 02:02:47;;;;;;;13.83;10.03;;;;;;;;;;5035341;28;20174;-72
2021/10/25 02:05:13;;;;;;;14.03;10.60;;;;;;;;;;5046763;28;20236;-73
2021/10/25 02:07:38;;;;;;;17.07;11.03;;;;;;;;;;5047018;28;20230;-73
2021/10/25 02:10:04;;;;;;;12.47;9.40;;;;;;;;;;5045261;28;20704;-74
2021/10/25 02:12:29;;;;;;;10.80;8.73;;;;;;;;;;5041524;28;20174;-74
2021/10/25 02:14:54;;;;;;;12.70;9.30;;;;;;;;;;5040455;28;20185;-74
2021/10/25 02:17:19;;;;;;;15.93;9.83;;;;;;;;;;5031082;28;20216;-74
2021/10/25 02:19:46;;;;;;;11.03;9.20;;;;;;;;;;5039130;28;20230;-75
2021/10/25 02:22:12;;;;;;;10.73;9.50;;;;;;;;;;5040487;28;20543;-75
2021/10/25 02:24:37;;;;;;;11.27;9.13;;;;;;;;;;5039172;28;20419;-75
2021/10/25 02:27:04;;;;;;;12.93;8.57;;;;;;;;;;5041276;28;20185;-75
2021/10/25 02:29:35;;;;;;;11.40;9.03;;;;;;;;;;5039838;28;20237;-74
2021/10/25 02:32:00;;;;;;;11.00;9.20;;;;;;;;;;5039686;28;20181;-75
2021/10/25 02:34:26;;;;;;;13.27;9.43;;;;;;;;;;5043421;28;20193;-75
2021/10/25 02:36:51;;;;;;;10.30;8.73;;;;;;;;;;5040346;28;20765;-75
2021/10/25 02:39:16;;;;;;;10.27;8.70;;;;;;;;;;5045202;28;20188;-75
2021/10/25 02:41:41;;;;;;;12.33;9.80;;;;;;;;;;5041614;28;20599;-74
2021/10/25 02:44:07;;;;;;;12.63;8.77;;;;;;;;;;5040436;28;20240;-74
2021/10/25 02:46:33;;;;;;;10.73;8.63;;;;;;;;;;5045595;28;20322;-75
2021/10/25 02:48:58;;;;;;;13.33;9.20;;;;;;;;;;5050470;28;20209;-74
2021/10/25 02:51:23;;;;;;;13.87;10.03;;;;;;;;;;5053797;28;20408;-75
2021/10/25 02:53:48;;;;;;;10.60;8.80;;;;;;;;;;5051925;28;20174;-74
2021/10/25 02:56:13;;;;;;;11.73;9.10;;;;;;;;;;5053693;28;20532;-75
2021/10/25 02:58:39;;;;;;;14.60;8.10;;;;;;;;;;5049476;28;20182;-74
2021/10/25 03:01:04;;;;;;;8.93;8.00;;;;;;;;;;5052901;28;20221;-74
2021/10/25 03:03:29;;;;;;;10.30;8.33;;;;;;;;;;5051235;28;20169;-74
2021/10/25 03:05:55;;;;;;;15.10;9.10;;;;;;;;;;5050887;28;20280;-74
2021/10/25 03:08:20;;;;;;;12.00;8.90;;;;;;;;;;5056747;28;20197;-74
2021/10/25 03:10:45;;;;;;;11.80;8.93;;;;;;;;;;5052279;28;20593;-74
2021/10/25 03:13:10;;;;;;;13.50;9.57;;;;;;;;;;5044715;28;20551;-75
2021/10/25 03:15:36;;;;;;;12.47;8.80;;;;;;;;;;5044959;28;20182;-75
2021/10/25 03:18:01;;;;;;;11.77;10.20;;;;;;;;;;5039806;28;20193;-75
2021/10/25 03:20:26;;;;;;;9.20;7.83;;;;;;;;;;5048732;28;20197;-74
2021/10/25 03:22:51;;;;;;;9.63;8.63;;;;;;;;;;5044121;28;20250;-74
2021/10/25 03:25:17;;;;;;;12.57;8.50;;;;;;;;;;5049126;28;20265;-74
2021/10/25 03:27:43;;;;;;;11.70;8.73;;;;;;;;;;5049513;28;20178;-75
2021/10/25 03:30:09;;;;;;;10.90;8.87;;;;;;;;;;5047497;28;20670;-75
2021/10/25 03:32:34;;;;;;;14.20;9.50;;;;;;;;;;5049729;28;20178;-75
2021/10/25 03:34:59;;;;;;;12.17;9.17;;;;;;;;;;5045573;28;20235;-76
2021/10/25 03:37:25;;;;;;;11.83;8.80;;;;;;;;;;5044271;28;20201;-75
2021/10/25 03:39:52;;;;;;;11.57;9.33;;;;;;;;;;5044142;28;20194;-75
2021/10/25 03:42:29;;;;;;;13.30;8.90;;;;;;;;;;5043999;28;20891;-74
2021/10/25 03:45:07;;;;;;;15.57;8.63;;;;;;;;;;5044061;28;20658;-75
2021/10/25 03:50:22;;;;;;;11.77;8.40;;;;;;;;;;5049541;28;20208;-74
2021/10/25 03:55:32;;;;;;;15.73;10.27;;;;;;;;;;5049629;28;20208;-75
2021/10/25 04:25:25;;;;;;;10.83;8.43;;;;;;;;;;5039597;28;20184;-75
2021/10/25 04:29:40;;;;;;;11.20;8.43;;;;;;;;;;5049340;28;20201;-73
2021/10/25 04:32:07;;;;;;;14.80;8.73;;;;;;;;;;5047878;28;20174;-73
2021/10/25 04:34:33;;;;;;;12.57;8.37;;;;;;;;;;5049187;28;20272;-76
2021/10/25 04:36:58;;;;;;;12.03;8.67;;;;;;;;;;5049055;28;20723;-74
2021/10/25 04:39:23;;;;;;;11.27;8.67;;;;;;;;;;5049620;28;20678;-74
2021/10/25 04:41:48;;;;;;;10.03;8.33;;;;;;;;;;5050429;28;20170;-74
2021/10/25 04:44:13;;;;;;;10.20;8.37;;;;;;;;;;5044880;28;20670;-74
2021/10/25 04:46:39;;;;;;;14.23;8.80;;;;;;;;;;5043518;28;20186;-74
2021/10/25 04:49:04;;;;;;;14.80;9.23;;;;;;;;;;5043172;28;20193;-74
2021/10/25 04:51:31;;;;;;;13.67;9.60;;;;;;;;;;5042740;28;20269;-75
2021/10/25 04:53:56;;;;;;;13.60;8.97;;;;;;;;;;5042343;28;20188;-75
2021/10/25 04:56:22;;;;;;;11.10;8.37;;;;;;;;;;5043779;28;20685;-75
2021/10/25 04:58:47;;;;;;;13.37;9.33;;;;;;;;;;5044499;28;20185;-74
2021/10/25 05:01:12;;;;;;;11.70;9.03;;;;;;;;;;5033747;28;20663;-74
2021/10/25 05:03:37;;;;;;;11.47;9.63;;;;;;;;;;5021035;28;21077;-74
2021/10/25 05:06:03;;;;;;;12.43;9.07;;;;;;;;;;5031123;28;20564;-73
2021/10/25 05:08:28;;;;;;;14.20;10.00;;;;;;;;;;5030297;28;20224;-73
2021/10/25 05:10:54;;;;;;;13.70;9.80;;;;;;;;;;5030897;28;20240;-74
2021/10/25 05:13:19;;;;;;;11.33;9.97;;;;;;;;;;5028922;28;20181;-74
2021/10/25 05:15:44;;;;;;;14.07;10.50;;;;;;;;;;5031430;28;20242;-74
2021/10/25 05:18:09;;;;;;;15.70;11.13;;;;;;;;;;5034272;28;20273;-74
2021/10/25 05:20:34;;;;;;;14.73;10.43;;;;;;;;;;5030513;28;20194;-74
2021/10/25 05:23:00;;;;;;;15.10;10.63;;;;;;;;;;5036711;28;20630;-75
2021/10/25 05:25:26;;;;;;;14.87;10.07;;;;;;;;;;5029219;28;20264;-75
2021/10/25 05:27:51;;;;;;;12.17;9.30;;;;;;;;;;5032451;28;20786;-75
2021/10/25 05:30:16;;;;;;;11.90;9.77;;;;;;;;;;5031474;28;20234;-74
2021/10/25 05:32:42;;;;;;;17.80;10.37;;;;;;;;;;5031044;28;20177;-75
2021/10/25 05:35:07;;;;;;;23.03;11.90;;;;;;;;;;5030751;28;20173;-74
2021/10/25 05:37:32;;;;;;;15.47;10.73;;;;;;;;;;5031181;28;20786;-75
2021/10/25 05:39:57;;;;;;;14.07;10.53;;;;;;;;;;5027893;28;20217;-75
2021/10/25 05:42:23;;;;;;;15.80;11.07;;;;;;;;;;5029424;28;20208;-75
2021/10/25 05:44:48;;;;;;;13.33;10.03;;;;;;;;;;5029947;28;20203;-75
2021/10/25 05:47:13;;;;;;;17.20;11.37;;;;;;;;;;5030279;28;20235;-75
2021/10/25 05:49:39;;;;;;;14.47;10.63;;;;;;;;;;5029121;28;20753;-75
2021/10/25 05:52:04;;;;;;;14.60;10.03;;;;;;;;;;5032529;28;20204;-75
2021/10/25 05:54:30;;;;;;;13.67;10.43;;;;;;;;;;5026814;28;20189;-73
2021/10/25 05:56:55;;;;;;;14.60;10.07;;;;;;;;;;5031462;28;20260;-73
2021/10/25 05:59:24;;;;;;;15.43;9.87;;;;;;;;;;5026541;28;20197;-73
2021/10/25 06:01:58;;;;;;;15.00;10.60;;;;;;;;;;5028980;28;20283;-75
2021/10/25 06:04:25;;;;;;;14.87;10.73;;;;;;;;;;5027807;28;20559;-75
2021/10/25 06:06:50;;;;;;;15.07;11.20;;;;;;;;;;5027591;28;20653;-73
2021/10/25 06:09:16;;;;;;;19.40;11.03;;;;;;;;;;5028754;28;20211;-75
2021/10/25 06:11:42;;;;;;;17.53;10.93;;;;;;;;;;5028591;28;20186;-73
2021/10/25 06:14:09;;;;;;;14.67;10.57;;;;;;;;;;5025619;28;20411;-73
2021/10/25 06:16:46;;;;;;;16.93;10.87;;;;;;;;;;5029745;28;20293;-74
2021/10/25 06:19:15;;;;;;;15.63;11.00;;;;;;;;;;5030335;28;20176;-73
2021/10/25 06:21:40;;;;;;;16.13;12.10;;;;;;;;;;5023270;28;20184;-75
2021/10/25 06:24:06;;;;;;;15.00;11.43;;;;;;;;;;5029610;28;20174;-74
2021/10/25 06:26:31;;;;;;;15.57;11.07;;;;;;;;;;5029880;28;20181;-74
2021/10/25 06:28:56;;;;;;;14.90;10.67;;;;;;;;;;5027696;28;20185;-74
2021/10/25 06:31:22;;;;;;;16.30;11.87;;;;;;;;;;5028983;28;20201;-75
2021/10/25 06:33:47;;;;;;;12.90;10.13;;;;;;;;;;5028492;28;21379;-75
2021/10/25 06:36:14;;;;;;;18.10;10.80;;;;;;;;;;5028266;28;20202;-74
2021/10/25 06:38:49;;;;;;;16.50;10.30;;;;;;;;;;5027214;28;20186;-74
2021/10/25 06:41:15;;;;;;;15.20;10.47;;;;;;;;;;5025801;28;20236;-75
2021/10/25 06:43:40;;;;;;;15.50;11.23;;;;;;;;;;5029540;28;20292;-74
2021/10/25 06:46:06;;;;;;;14.10;9.97;;;;;;;;;;5029233;28;20210;-73
2021/10/25 06:48:31;;;;;;;19.23;10.40;;;;;;;;;;5027294;28;20277;-74
2021/10/25 06:50:57;;;;;;;18.33;11.80;;;;;;;;;;5033885;28;20233;-74
2021/10/25 06:53:22;;;;;;;15.27;10.07;;;;;;;;;;5029713;28;20244;-74
2021/10/25 06:55:47;;;;;;;15.40;10.70;;;;;;;;;;5029343;28;20186;-74
2021/10/25 06:58:13;;;;;;;18.33;11.23;;;;;;;;;;5030526;28;20183;-74
2021/10/25 07:00:38;;;;;;;14.47;10.33;;;;;;;;;;5029720;28;20324;-75
2021/10/25 07:03:03;;;;;;;14.13;10.93;;;;;;;;;;5029026;28;20190;-75
2021/10/25 07:05:31;;;;;;;16.70;11.60;;;;;;;;;;5030785;28;20186;-74
2021/10/25 07:07:57;;;;;;;17.30;11.60;;;;;;;;;;5025970;28;20209;-74
2021/10/25 07:10:22;;;;;;;19.53;13.03;;;;;;;;;;5028915;28;20312;-74
2021/10/25 07:12:48;;;;;;;20.50;13.37;;;;;;;;;;5029870;28;20182;-75
2021/10/25 07:15:16;;;;;;;16.97;12.40;;;;;;;;;;5027925;28;20178;-74
2021/10/25 07:18:04;;;;;;;22.37;13.20;;;;;;;;;;5033378;28;20226;-74
2021/10/25 08:11:56;;;;;;;16.33;12.77;;;;;;;;;;5041669;28;20221;-75
2021/10/25 08:14:30;;;;;;;17.03;12.10;;;;;;;;;;5043129;28;20181;-75
2021/10/25 08:16:55;;;;;;;17.53;12.50;;;;;;;;;;5045155;28;20597;-76
2021/10/25 08:19:25;;;;;;;16.87;11.80;;;;;;;;;;5040615;28;20174;-75
2021/10/25 08:22:11;;;;;;;16.97;10.90;;;;;;;;;;5030211;28;21798;-73
2021/10/25 08:24:41;;;;;;;14.77;10.00;;;;;;;;;;5031190;28;20522;-74
2021/10/25 08:27:07;;;;;;;13.20;10.30;;;;;;;;;;5031260;28;20190;-74
2021/10/25 08:29:33;;;;;;;14.03;10.60;;;;;;;;;;5029218;28;20687;-74
2021/10/25 08:34:52;;;;;;;13.03;10.67;;;;;;;;;;5038926;28;20181;-74
2021/10/25 08:39:47;;;;;;;13.97;11.40;;;;;;;;;;5033757;28;20394;-74
2021/10/25 08:42:19;;;;;;;16.13;10.93;;;;;;;;;;5033173;28;20205;-74
2021/10/25 08:44:49;;;;;;;14.37;10.40;;;;;;;;;;5038247;28;20174;-74
2021/10/25 08:47:16;;;;;;;14.07;10.60;;;;;;;;;;5023862;28;20315;-75
2021/10/25 08:49:41;;;;;;;16.17;10.37;;;;;;;;;;5045759;28;20201;-75
2021/10/25 08:52:06;;;;;;;15.87;10.00;;;;;;;;;;5035398;28;20712;-75
2021/10/25 08:54:31;;;;;;;15.07;10.73;;;;;;;;;;5039087;28;20186;-75
2021/10/25 08:56:57;;;;;;;15.77;11.53;;;;;;;;;;5034735;28;20247;-76
2021/10/25 08:59:23;;;;;;;15.07;10.33;;;;;;;;;;5028980;28;20182;-75
2021/10/25 09:01:48;;;;;;;13.53;9.87;;;;;;;;;;5026335;28;20238;-75
2021/10/25 09:04:13;;;;;;;14.27;10.97;;;;;;;;;;5032369;28;20247;-76
2021/10/25 09:06:51;;;;;;;16.47;10.20;;;;;;;;;;5026866;28;20264;-75
2021/10/25 09:09:16;;;;;;;14.70;10.97;;;;;;;;;;5033443;28;20987;-76
2021/10/25 09:12:00;;;;;;;14.33;10.23;;;;;;;;;;5029910;28;20205;-74
2021/10/25 09:14:26;;;;;;;13.63;9.13;;;;;;;;;;5023175;28;20216;-74
2021/10/25 09:16:56;;;;;;;19.23;12.40;;;;;;;;;;5040566;28;20220;-77
2021/10/25 09:19:22;;;;;;;14.73;10.67;;;;;;;;;;5034317;28;20181;-76
2021/10/25 09:21:48;;;;;;;14.77;10.27;;;;;;;;;;5032578;28;20178;-74
2021/10/25 09:24:25;;;;;;;17.97;10.57;;;;;;;;;;5026877;28;20264;-75
2021/10/25 09:26:54;;;;;;;15.53;11.03;;;;;;;;;;5033169;28;20178;-75
2021/10/25 09:29:23;;;;;;;14.60;11.40;;;;;;;;;;5030836;28;20227;-76
2021/10/25 09:31:52;;;;;;;15.85;10.05;;;;;;;;;;5027680;28;20180;-75
2021/10/25 09:34:17;;;;;;;12.95;10.77;;;;;;;;;;5032618;28;20219;-76
2021/10/25 09:36:50;;;;;;;12.37;10.17;;;;;;;;;;5031981;28;20252;-75
2021/10/25 09:39:27;;;;;;;14.68;9.88;;;;;;;;;;5032020;28;20268;-75
2021/10/25 09:49:51;;;;;;;13.13;10.23;;;;;;;;;;5026560;28;20954;-74
2021/10/25 09:52:16;;;;;;;15.23;10.02;;;;;;;;;;5034911;28;20264;-74
2021/10/25 09:54:43;;;;;;;15.00;11.45;;;;;;;;;;5033347;28;20188;-75
2021/10/25 09:57:11;;;;;;;13.15;11.10;;;;;;;;;;5029553;28;20295;-74
2021/10/25 09:59:53;;;;;;;18.77;11.40;;;;;;;;;;5028365;28;20206;-76
2021/10/25 10:02:21;;;;;;;13.20;11.20;;;;;;;;;;5022757;28;20286;-76
2021/10/25 10:04:46;;;;;;;13.48;11.02;;;;;;;;;;5028819;28;20182;-75
2021/10/25 10:07:15;;;;;;;16.65;12.90;;;;;;;;;;5026557;28;20209;-76
2021/10/25 10:09:40;;;;;;;15.93;11.57;;;;;;;;;;5018544;28;20208;-75
2021/10/25 10:12:07;;;;;;;17.95;12.00;;;;;;;;;;5031294;28;20199;-76
2021/10/25 10:14:33;;;;;;;16.65;11.80;;;;;;;;;;5024862;28;20180;-75
2021/10/25 10:16:58;;;;;;;17.85;13.77;;;;;;;;;;5028532;28;20223;-75
2021/10/25 10:19:25;;;;;;;16.25;13.00;;;;;;;;;;5034211;28;20888;-74
2021/10/25 10:21:55;;;;;;;16.17;12.52;;;;;;;;;;5035444;28;20209;-76
2021/10/25 10:24:29;;;;;;;19.17;13.95;;;;;;;;;;5027179;28;20170;-75
2021/10/25 10:26:58;;;;;;;16.17;12.48;;;;;;;;;;5026504;28;20661;-75
2021/10/25 10:29:24;;;;;;;16.20;13.30;;;;;;;;;;5026789;28;20184;-76
2021/10/25 10:32:02;;;;;;;18.20;14.50;;;;;;;;;;5031071;28;20190;-74
2021/10/25 10:34:37;;;;;;;19.88;15.05;;;;;;;;;;5029373;28;20595;-74
2021/10/25 10:37:02;;;;;;;19.40;15.50;;;;;;;;;;5028888;28;21655;-74
2021/10/25 10:39:28;;;;;;;20.77;16.58;;;;;;;;;;5029246;28;20205;-76
2021/10/25 10:41:54;;;;;;;20.58;16.02;;;;;;;;;;5026029;28;20912;-75
2021/10/25 10:44:21;;;;;;;20.52;16.33;;;;;;;;;;5030800;28;20671;-75
2021/10/25 10:46:58;;;;;;;21.27;16.30;;;;;;;;;;5027235;28;20185;-75
2021/10/25 10:49:35;;;;;;;20.65;16.45;;;;;;;;;;5031268;28;20177;-75
2021/10/25 10:52:06;;;;;;;18.52;15.48;;;;;;;;;;5023507;28;20374;-75
2021/10/25 10:54:39;;;;;;;22.83;16.55;;;;;;;;;;5022731;28;20711;-74
2021/10/25 10:57:20;;;;;;;17.50;15.60;;;;;;;;;;5037609;28;20241;-74
2021/10/25 10:59:50;;;;;;;18.15;15.60;;;;;;;;;;5035707;28;20560;-74
2021/10/25 11:02:19;;;;;;;23.85;17.50;;;;;;;;;;5032213;28;20185;-76
2021/10/25 11:04:44;;;;;;;22.23;17.13;;;;;;;;;;5026301;28;20182;-76
2021/10/25 11:07:09;;;;;;;22.58;17.35;;;;;;;;;;5033951;28;20181;-75
2021/10/25 11:09:35;;;;;;;23.92;18.98;;;;;;;;;;5031313;28;20209;-76
2021/10/25 11:12:09;;;;;;;22.23;17.60;;;;;;;;;;5032736;28;20200;-76
2021/10/25 11:14:36;;;;;;;22.15;18.42;;;;;;;;;;5034153;28;20196;-75
2021/10/25 11:17:26;;;;;;;22.73;18.05;;;;;;;;;;5037292;28;20327;-75
2021/10/25 11:19:52;;;;;;;20.70;17.70;;;;;;;;;;5035534;28;20193;-75
2021/10/25 11:22:43;;;;;;;24.08;19.35;;;;;;;;;;5032852;28;20185;-74
2021/10/25 11:25:10;;;;;;;22.38;18.10;;;;;;;;;;5022778;28;20193;-75
2021/10/25 11:27:40;;;;;;;21.50;18.17;;;;;;;;;;5034713;28;20181;-75
2021/10/25 11:30:13;;;;;;;21.35;16.80;;;;;;;;;;5030569;28;20206;-75
2021/10/25 11:32:38;;;;;;;20.73;17.90;;;;;;;;;;5051506;28;20182;-75
2021/10/25 11:35:09;;;;;;;20.63;17.13;;;;;;;;;;5031183;28;21019;-76
2021/10/25 11:37:35;;;;;;;21.35;16.48;;;;;;;;;;5033505;28;20239;-76
2021/10/25 11:42:31;;;;;;;20.73;17.10;;;;;;;;;;5034549;28;20245;-76
2021/10/25 11:44:58;;;;;;;18.23;16.35;;;;;;;;;;5051657;28;20548;-75
2021/10/25 11:47:30;;;;;;;20.55;17.70;;;;;;;;;;5027066;28;20184;-75
2021/10/25 11:50:00;;;;;;;20.48;17.08;;;;;;;;;;5030763;28;20231;-75
2021/10/25 11:52:25;;;;;;;20.08;18.02;;;;;;;;;;5027265;28;20232;-76
2021/10/25 11:54:51;;;;;;;20.40;18.23;;;;;;;;;;5042527;28;20701;-74
2021/10/25 11:57:23;;;;;;;20.05;17.48;;;;;;;;;;5029280;28;20660;-74
2021/10/25 11:59:59;;;;;;;22.33;18.52;;;;;;;;;;5034753;28;20302;-74
2021/10/25 12:02:25;;;;;;;20.55;17.88;;;;;;;;;;5034271;28;20177;-74
2021/10/25 12:04:50;;;;;;;21.35;17.60;;;;;;;;;;5029317;28;20192;-74
2021/10/25 12:07:15;;;;;;;19.40;17.40;;;;;;;;;;5032491;28;20182;-74
2021/10/25 12:09:41;;;;;;;23.90;18.75;;;;;;;;;;5033527;28;20205;-74
2021/10/25 12:12:09;;;;;;;22.00;18.83;;;;;;;;;;5030370;28;20220;-74
2021/10/25 12:14:37;;;;;;;20.45;18.35;;;;;;;;;;5031967;28;20544;-74
2021/10/25 12:17:03;;;;;;;20.42;18.33;;;;;;;;;;5024078;28;20296;-74
2021/10/25 12:19:29;;;;;;;19.75;16.95;;;;;;;;;;5032135;28;20920;-74
2021/10/25 12:21:54;;;;;;;18.38;16.30;;;;;;;;;;5030882;28;20271;-74
2021/10/25 12:24:21;;;;;;;20.70;16.05;;;;;;;;;;5031221;28;20202;-74
2021/10/25 12:27:01;;;;;;;21.60;15.77;;;;;;;;;;5029828;28;20185;-74
2021/10/25 12:29:26;;;;;;;17.38;15.50;;;;;;;;;;5033225;28;20208;-74
2021/10/25 12:31:52;;;;;;;19.48;17.38;;;;;;;;;;5034520;28;20719;-74
2021/10/25 12:34:17;;;;;;;19.73;16.63;;;;;;;;;;5029110;28;20201;-76
2021/10/25 12:36:44;;;;;;;18.42;16.00;;;;;;;;;;5031396;28;20202;-76
2021/10/25 12:39:11;;;;;;;17.83;16.00;;;;;;;;;;5031695;28;20178;-74
2021/10/25 12:41:44;;;;;;;17.65;15.18;;;;;;;;;;5027109;28;20193;-74
2021/10/25 12:44:09;;;;;;;17.27;15.35;;;;;;;;;;5029061;28;20184;-75
2021/10/25 12:46:35;;;;;;;15.95;14.35;;;;;;;;;;5027253;28;20189;-75
2021/10/25 12:49:00;;;;;;;17.88;15.02;;;;;;;;;;5029044;28;20822;-76
2021/10/25 12:51:41;;;;;;;17.98;15.00;;;;;;;;;;5026798;28;20243;-74
2021/10/25 12:54:11;;;;;;;16.77;14.70;;;;;;;;;;5032803;28;20296;-74
2021/10/25 12:56:37;;;;;;;21.98;15.55;;;;;;;;;;5030515;28;20198;-74
2021/10/25 12:59:03;;;;;;;16.15;14.55;;;;;;;;;;5030798;28;20174;-73
2021/10/25 13:01:29;;;;;;;19.83;16.08;;;;;;;;;;5040880;28;20198;-74
2021/10/25 13:03:58;;;;;;;17.75;15.05;;;;;;;;;;5028427;28;20191;-74
2021/10/25 13:06:31;;;;;;;17.42;15.02;;;;;;;;;;5031155;28;20177;-74
2021/10/25 13:08:59;;;;;;;18.08;15.93;;;;;;;;;;5032199;28;20200;-74
2021/10/25 13:11:24;;;;;;;19.55;17.33;;;;;;;;;;5028365;28;20216;-74
2021/10/25 13:13:50;;;;;;;20.55;17.45;;;;;;;;;;5029911;28;20716;-74
2021/10/25 13:16:17;;;;;;;22.23;19.95;;;;;;;;;;5031787;28;20208;-74
2021/10/25 13:18:42;;;;;;;22.02;19.67;;;;;;;;;;5036129;28;20192;-74
2021/10/25 13:21:08;;;;;;;22.13;19.33;;;;;;;;;;5033308;28;20301;-75
2021/10/25 13:23:35;;;;;;;29.33;21.00;;;;;;;;;;5033308;28;20338;-74
2021/10/25 13:26:02;;;;;;;23.05;20.60;;;;;;;;;;5031082;28;20181;-75
2021/10/25 13:28:27;;;;;;;28.73;22.00;;;;;;;;;;5032641;28;20269;-74
2021/10/25 13:30:52;;;;;;;21.80;18.98;;;;;;;;;;5026949;28;20250;-74
2021/10/25 13:33:18;;;;;;;23.00;18.48;;;;;;;;;;5030774;28;20323;-74
2021/10/25 13:35:43;;;;;;;22.38;19.80;;;;;;;;;;5029157;28;20706;-75
2021/10/25 13:38:09;;;;;;;26.52;21.35;;;;;;;;;;5027025;28;20230;-75
2021/10/25 13:40:34;;;;;;;24.08;21.52;;;;;;;;;;5026354;28;20464;-74
2021/10/25 13:43:03;;;;;;;22.88;20.33;;;;;;;;;;5021047;28;20190;-74
2021/10/25 13:45:29;;;;;;;28.05;21.90;;;;;;;;;;5028061;28;20702;-74
2021/10/25 13:47:55;;;;;;;24.40;21.58;;;;;;;;;;5026270;28;20182;-74
2021/10/25 13:50:22;;;;;;;27.02;23.05;;;;;;;;;;5030209;28;20671;-74
2021/10/25 13:52:48;;;;;;;24.17;21.55;;;;;;;;;;5030631;28;20700;-74
2021/10/25 13:55:13;;;;;;;24.80;22.08;;;;;;;;;;5027570;28;20186;-75
2021/10/25 13:57:41;;;;;;;25.20;22.02;;;;;;;;;;5035519;28;20780;-74
2021/10/25 14:00:08;;;;;;;24.95;22.23;;;;;;;;;;5030698;28;20194;-74
2021/10/25 14:02:33;;;;;;;28.17;22.67;;;;;;;;;;5030339;28;20575;-75
2021/10/25 14:04:59;;;;;;;25.10;22.25;;;;;;;;;;5033820;28;20626;-74
2021/10/25 14:07:31;;;;;;;26.35;23.08;;;;;;;;;;5029912;28;20193;-74
2021/10/25 14:10:17;;;;;;;28.15;23.30;;;;;;;;;;5041422;22;20256;-71
2021/10/25 14:12:42;;;;;;;25.50;22.80;;;;;;;;;;5024241;28;20285;-71
2021/10/25 14:15:20;;;;;;;26.25;22.90;;;;;;;;;;5029292;28;20189;-70
2021/10/25 14:17:46;;;;;;;25.20;22.63;;;;;;;;;;5023065;28;20201;-71
2021/10/25 14:20:11;;;;;;;25.85;23.13;;;;;;;;;;5029439;28;20198;-71
2021/10/25 14:22:36;;;;;;;29.27;22.75;;;;;;;;;;5029552;28;20220;-71
2021/10/25 14:25:02;;;;;;;28.30;23.75;;;;;;;;;;5029938;28;20196;-71
2021/10/25 14:27:28;;;;;;;30.98;23.58;;;;;;;;;;5013295;28;20183;-71
2021/10/25 14:29:53;;;;;;;24.83;21.88;;;;;;;;;;5031540;28;20296;-71
2021/10/25 14:32:18;;;;;;;24.77;22.10;;;;;;;;;;5031765;28;20174;-71
2021/10/25 14:34:43;;;;;;;25.67;23.13;;;;;;;;;;5031707;28;20187;-71
2021/10/25 14:37:10;;;;;;;23.50;21.10;;;;;;;;;;5028072;28;20714;-71
2021/10/25 14:39:46;;;;;;;23.77;21.38;;;;;;;;;;5029159;28;20189;-71
2021/10/25 14:42:22;;;;;;;24.33;20.90;;;;;;;;;;5025289;28;20177;-71
2021/10/25 14:45:04;;;;;;;25.00;22.10;;;;;;;;;;5028710;28;20559;-71
2021/10/25 14:56:24;;;;;;;22.98;20.20;;;;;;;;;;5035138;28;20189;-71
2021/10/25 14:58:32;;;;;;;24.42;19.67;;;;;;;;;;5015724;28;20250;-71
2021/10/25 15:00:58;;;;;;;19.83;17.83;;;;;;;;;;5011916;28;20206;-71
2021/10/25 15:03:23;;;;;;;22.42;18.85;;;;;;;;;;5023543;28;20174;-71
2021/10/25 15:05:49;;;;;;;23.33;20.70;;;;;;;;;;5031589;28;20178;-71
2021/10/25 15:08:16;;;;;;;21.17;18.92;;;;;;;;;;5029459;28;20225;-71
2021/10/25 15:10:41;;;;;;;21.83;18.45;;;;;;;;;;5030044;28;20217;-71
2021/10/25 15:13:06;;;;;;;20.65;18.48;;;;;;;;;;5031543;28;20855;-71
2021/10/25 15:15:31;;;;;;;21.00;18.83;;;;;;;;;;5030221;28;20646;-71
2021/10/25 15:17:57;;;;;;;20.30;18.27;;;;;;;;;;5035678;28;20729;-71
2021/10/25 15:20:23;;;;;;;22.75;18.08;;;;;;;;;;5025012;28;20682;-71
2021/10/25 15:22:49;;;;;;;21.90;18.42;;;;;;;;;;5029809;28;20181;-71
2021/10/25 15:25:17;;;;;;;21.13;18.95;;;;;;;;;;5025581;28;20177;-72
2021/10/25 15:27:43;;;;;;;18.63;16.83;;;;;;;;;;5016631;28;21172;-72
2021/10/25 15:30:10;;;;;;;18.38;16.25;;;;;;;;;;5002591;28;20197;-71
2021/10/25 15:32:35;;;;;;;19.13;16.55;;;;;;;;;;5028935;28;20251;-71
2021/10/25 15:35:00;;;;;;;19.35;16.67;;;;;;;;;;5010492;28;20190;-72
2021/10/25 15:37:27;;;;;;;21.85;17.52;;;;;;;;;;5028004;28;20205;-71
2021/10/25 15:39:52;;;;;;;22.73;17.80;;;;;;;;;;5029231;28;20710;-71
2021/10/25 15:42:19;;;;;;;21.05;18.88;;;;;;;;;;5032317;28;20646;-71
2021/10/25 15:44:45;;;;;;;26.13;18.40;;;;;;;;;;5029612;28;20190;-71
2021/10/25 15:47:11;;;;;;;20.98;18.77;;;;;;;;;;5029291;28;20192;-71
2021/10/25 15:49:37;;;;;;;20.65;18.05;;;;;;;;;;5027599;28;20174;-72
2021/10/25 15:52:02;;;;;;;22.08;18.40;;;;;;;;;;5027950;28;20715;-71
2021/10/25 15:54:28;;;;;;;19.92;17.00;;;;;;;;;;5029200;28;20185;-71
2021/10/25 15:56:54;;;;;;;24.35;19.45;;;;;;;;;;5026684;28;20295;-71
2021/10/25 15:59:19;;;;;;;20.65;18.40;;;;;;;;;;5026455;28;20197;-71
2021/10/25 16:01:45;;;;;;;21.80;19.48;;;;;;;;;;5028368;28;20232;-71
2021/10/25 16:04:11;;;;;;;21.83;18.63;;;;;;;;;;5027555;28;20276;-71
2021/10/25 16:06:36;;;;;;;23.58;19.77;;;;;;;;;;5028886;28;20210;-71
2021/10/25 16:09:02;;;;;;;23.80;20.08;;;;;;;;;;5027722;28;20247;-71